createdAt,value
2022-12-19T00:01:25.474Z,-1.31
2022-12-19T00:06:26.690Z,-1.17
2022-12-19T00:11:27.865Z,-1.10
2022-12-19T00:16:29.197Z,-1.03
2022-12-19T00:21:28.936Z,-1.43
2022-12-19T00:26:30.091Z,-1.17
2022-12-19T00:31:31.611Z,-0.99
2022-12-19T00:36:30.878Z,-1.00
2022-12-19T00:41:32.115Z,-0.95
2022-12-19T00:46:33.342Z,-1.02
2022-12-19T00:51:34.459Z,-1.00
2022-12-19T00:56:37.143Z,-0.87
2022-12-19T01:01:35.467Z,-0.78
2022-12-19T01:06:36.746Z,-0.51
2022-12-19T01:11:38.057Z,-0.52
2022-12-19T01:16:39.329Z,-0.54
2022-12-19T01:21:40.461Z,-0.60
2022-12-19T01:26:41.740Z,-0.65
2022-12-19T01:31:42.932Z,-0.66
2022-12-19T01:36:44.117Z,-0.69
2022-12-19T01:41:46.324Z,-0.62
2022-12-19T01:46:45.475Z,-0.68
2022-12-19T01:51:46.647Z,-0.89
2022-12-19T01:56:51.651Z,-0.80
2022-12-19T02:01:51.834Z,-0.70
2022-12-19T02:06:49.325Z,-0.68
2022-12-19T02:11:51.479Z,-0.99
2022-12-19T02:16:50.679Z,-0.89
2022-12-19T02:21:54.703Z,-0.84
2022-12-19T02:26:52.211Z,-0.65
2022-12-19T02:31:53.478Z,-0.86
2022-12-19T02:36:54.801Z,-1.03
2022-12-19T02:41:54.194Z,-0.86
2022-12-19T02:46:55.323Z,-0.66
2022-12-19T02:51:56.533Z,-0.63
2022-12-19T02:56:57.706Z,-0.68
2022-12-19T03:01:59.044Z,-0.65
2022-12-19T03:07:00.327Z,-0.50
2022-12-19T03:12:17.173Z,-0.47
2022-12-19T03:17:02.641Z,-0.39
2022-12-19T03:22:04.747Z,-0.30
2022-12-19T03:27:03.861Z,-0.18
2022-12-19T03:32:04.995Z,-0.15
2022-12-19T03:37:06.157Z,-0.42
2022-12-19T03:42:07.250Z,-0.37
2022-12-19T03:47:08.403Z,-0.45
2022-12-19T03:52:10.585Z,-0.54
2022-12-19T03:57:09.700Z,-0.51
2022-12-19T04:02:11.029Z,-0.54
2022-12-19T04:07:12.265Z,-0.23
2022-12-19T04:12:13.409Z,-0.06
2022-12-19T04:17:14.557Z,-0.01
2022-12-19T04:22:15.683Z,0.03
2022-12-19T04:27:18.841Z,0.03
2022-12-19T04:32:17.930Z,0.12
2022-12-19T04:37:19.079Z,0.07
2022-12-19T04:42:20.186Z,0.09
2022-12-19T04:47:21.352Z,-0.22
2022-12-19T04:52:22.483Z,-0.05
2022-12-19T04:57:23.624Z,0.00
2022-12-19T05:02:24.957Z,0.16
2022-12-19T05:07:26.187Z,0.02
2022-12-19T05:12:27.446Z,0.05
2022-12-19T05:17:28.559Z,-0.08
2022-12-19T05:22:29.692Z,-0.06
2022-12-19T05:27:31.819Z,0.09
2022-12-19T05:32:32.001Z,0.18
2022-12-19T05:37:31.114Z,0.36
2022-12-19T05:42:31.578Z,0.30
2022-12-19T05:47:32.756Z,0.25
2022-12-19T05:52:33.959Z,0.31
2022-12-19T05:57:35.350Z,0.41
2022-12-19T06:02:36.691Z,0.39
2022-12-19T06:07:37.998Z,0.45
2022-12-19T06:12:39.197Z,0.18
2022-12-19T06:17:40.396Z,0.02
2022-12-19T06:22:41.630Z,0.39
2022-12-19T06:27:43.784Z,0.57
2022-12-19T06:32:43.943Z,0.68
2022-12-19T06:37:43.054Z,0.41
2022-12-19T06:42:44.189Z,0.52
2022-12-19T06:47:46.396Z,0.60
2022-12-19T06:52:45.525Z,0.57
2022-12-19T06:57:46.631Z,0.60
2022-12-19T07:02:47.899Z,0.61
2022-12-19T07:07:49.077Z,0.71
2022-12-19T07:12:50.226Z,0.76
2022-12-19T07:17:51.373Z,0.96
2022-12-19T07:22:52.496Z,0.97
2022-12-19T07:27:53.643Z,0.98
2022-12-19T07:32:54.787Z,1.04
2022-12-19T07:37:55.867Z,1.08
2022-12-19T07:42:57.024Z,1.33
2022-12-19T07:47:58.171Z,1.54
2022-12-19T07:53:00.293Z,1.47
2022-12-19T07:57:59.411Z,1.40
2022-12-19T08:03:00.562Z,1.60
2022-12-19T08:08:02.670Z,1.80
2022-12-19T08:13:02.857Z,2.04
2022-12-19T08:18:02.090Z,1.93
2022-12-19T08:23:03.187Z,1.91
2022-12-19T08:28:04.316Z,2.01
2022-12-19T08:33:06.757Z,2.26
